sensor_id;sensor_type;location;lat;lon;timestamp;P1;durP1;ratioP1;P2;durP2;ratioP2
21581;SDS011;10952;50.836;4.348;2022-07-29T00:00:35;7.73;;;2.10;;
21581;SDS011;10952;50.836;4.348;2022-07-29T00:03:01;9.40;;;2.17;;
21581;SDS011;10952;50.836;4.348;2022-07-29T00:05:27;8.63;;;2.30;;
21581;SDS011;10952;50.836;4.348;2022-07-29T00:07:53;6.40;;;1.83;;
21581;SDS011;10952;50.836;4.348;2022-07-29T00:10:19;6.73;;;2.40;;
21581;SDS011;10952;50.836;4.348;2022-07-29T00:12:44;13.10;;;2.30;;
21581;SDS011;10952;50.836;4.348;2022-07-29T00:15:10;5.97;;;2.10;;
21581;SDS011;10952;50.836;4.348;2022-07-29T00:17:36;5.00;;;2.20;;
21581;SDS011;10952;50.836;4.348;2022-07-29T00:20:02;9.63;;;1.93;;
21581;SDS011;10952;50.836;4.348;2022-07-29T00:22:28;8.30;;;1.87;;
21581;SDS011;10952;50.836;4.348;2022-07-29T00:24:55;5.13;;;1.90;;
21581;SDS011;10952;50.836;4.348;2022-07-29T00:27:21;7.17;;;2.07;;
21581;SDS011;10952;50.836;4.348;2022-07-29T00:29:47;10.43;;;2.20;;
21581;SDS011;10952;50.836;4.348;2022-07-29T00:32:14;6.83;;;2.00;;
21581;SDS011;10952;50.836;4.348;2022-07-29T00:34:39;5.93;;;2.00;;
21581;SDS011;10952;50.836;4.348;2022-07-29T00:37:24;3.80;;;1.93;;
21581;SDS011;10952;50.836;4.348;2022-07-29T00:39:50;4.67;;;1.63;;
21581;SDS011;10952;50.836;4.348;2022-07-29T00:42:16;4.47;;;1.90;;
21581;SDS011;10952;50.836;4.348;2022-07-29T00:44:42;8.40;;;2.40;;
21581;SDS011;10952;50.836;4.348;2022-07-29T00:47:11;10.37;;;1.83;;
21581;SDS011;10952;50.836;4.348;2022-07-29T00:49:38;5.47;;;2.30;;
21581;SDS011;10952;50.836;4.348;2022-07-29T00:52:06;6.07;;;1.73;;
21581;SDS011;10952;50.836;4.348;2022-07-29T00:54:34;7.10;;;2.03;;
21581;SDS011;10952;50.836;4.348;2022-07-29T00:57:00;5.53;;;1.70;;
21581;SDS011;10952;50.836;4.348;2022-07-29T00:59:27;5.33;;;2.10;;
21581;SDS011;10952;50.836;4.348;2022-07-29T01:01:53;4.63;;;1.60;;
21581;SDS011;10952;50.836;4.348;2022-07-29T01:04:20;4.30;;;1.70;;
21581;SDS011;10952;50.836;4.348;2022-07-29T01:06:49;4.30;;;1.83;;
21581;SDS011;10952;50.836;4.348;2022-07-29T01:09:19;8.53;;;2.30;;
21581;SDS011;10952;50.836;4.348;2022-07-29T01:11:47;6.53;;;2.00;;
21581;SDS011;10952;50.836;4.348;2022-07-29T01:14:13;8.00;;;2.20;;
21581;SDS011;10952;50.836;4.348;2022-07-29T01:16:59;7.60;;;1.70;;
21581;SDS011;10952;50.836;4.348;2022-07-29T01:19:47;6.97;;;2.30;;
21581;SDS011;10952;50.836;4.348;2022-07-29T01:31:10;4.13;;;1.40;;
21581;SDS011;10952;50.836;4.348;2022-07-29T01:33:39;8.23;;;1.97;;
21581;SDS011;10952;50.836;4.348;2022-07-29T01:36:22;6.10;;;2.00;;
21581;SDS011;10952;50.836;4.348;2022-07-29T01:39:01;3.97;;;1.50;;
21581;SDS011;10952;50.836;4.348;2022-07-29T01:44:27;7.47;;;1.87;;
21581;SDS011;10952;50.836;4.348;2022-07-29T01:47:02;3.70;;;1.73;;
21581;SDS011;10952;50.836;4.348;2022-07-29T01:49:35;5.80;;;2.17;;
21581;SDS011;10952;50.836;4.348;2022-07-29T01:52:05;5.47;;;1.80;;
21581;SDS011;10952;50.836;4.348;2022-07-29T01:54:43;4.47;;;2.00;;
21581;SDS011;10952;50.836;4.348;2022-07-29T01:57:14;7.30;;;1.90;;
21581;SDS011;10952;50.836;4.348;2022-07-29T01:59:43;5.47;;;2.00;;
21581;SDS011;10952;50.836;4.348;2022-07-29T02:02:11;7.57;;;2.10;;
21581;SDS011;10952;50.836;4.348;2022-07-29T02:04:45;6.17;;;2.23;;
21581;SDS011;10952;50.836;4.348;2022-07-29T02:07:16;5.60;;;2.00;;
21581;SDS011;10952;50.836;4.348;2022-07-29T02:09:47;6.10;;;1.70;;
21581;SDS011;10952;50.836;4.348;2022-07-29T02:12:18;8.77;;;2.30;;
21581;SDS011;10952;50.836;4.348;2022-07-29T02:14:46;6.70;;;1.90;;
21581;SDS011;10952;50.836;4.348;2022-07-29T02:17:23;5.67;;;1.97;;
21581;SDS011;10952;50.836;4.348;2022-07-29T02:19:53;12.43;;;2.10;;
21581;SDS011;10952;50.836;4.348;2022-07-29T02:22:24;4.07;;;1.80;;
21581;SDS011;10952;50.836;4.348;2022-07-29T02:24:51;6.23;;;1.80;;
21581;SDS011;10952;50.836;4.348;2022-07-29T02:27:18;7.93;;;2.10;;
21581;SDS011;10952;50.836;4.348;2022-07-29T02:29:46;6.03;;;2.17;;
21581;SDS011;10952;50.836;4.348;2022-07-29T02:32:13;6.10;;;2.33;;
21581;SDS011;10952;50.836;4.348;2022-07-29T02:34:41;7.27;;;2.20;;
21581;SDS011;10952;50.836;4.348;2022-07-29T02:37:09;10.17;;;2.20;;
21581;SDS011;10952;50.836;4.348;2022-07-29T02:39:36;7.80;;;2.00;;
21581;SDS011;10952;50.836;4.348;2022-07-29T02:42:05;4.87;;;1.90;;
21581;SDS011;10952;50.836;4.348;2022-07-29T02:44:35;7.43;;;1.97;;
21581;SDS011;10952;50.836;4.348;2022-07-29T02:47:02;7.13;;;1.70;;
21581;SDS011;10952;50.836;4.348;2022-07-29T02:49:37;7.50;;;2.03;;
21581;SDS011;10952;50.836;4.348;2022-07-29T02:52:08;5.63;;;2.10;;
21581;SDS011;10952;50.836;4.348;2022-07-29T02:57:29;5.03;;;2.07;;
21581;SDS011;10952;50.836;4.348;2022-07-29T03:00:05;6.27;;;2.30;;
21581;SDS011;10952;50.836;4.348;2022-07-29T03:02:34;9.90;;;2.30;;
21581;SDS011;10952;50.836;4.348;2022-07-29T03:05:03;6.93;;;2.10;;
21581;SDS011;10952;50.836;4.348;2022-07-29T03:07:31;6.87;;;2.13;;
21581;SDS011;10952;50.836;4.348;2022-07-29T03:10:01;7.07;;;2.13;;
21581;SDS011;10952;50.836;4.348;2022-07-29T03:12:31;8.73;;;2.10;;
21581;SDS011;10952;50.836;4.348;2022-07-29T03:14:58;6.43;;;2.20;;
21581;SDS011;10952;50.836;4.348;2022-07-29T03:19:55;5.93;;;1.97;;
21581;SDS011;10952;50.836;4.348;2022-07-29T03:22:21;6.97;;;2.10;;
21581;SDS011;10952;50.836;4.348;2022-07-29T03:24:53;5.30;;;2.07;;
21581;SDS011;10952;50.836;4.348;2022-07-29T03:27:18;3.70;;;2.10;;
21581;SDS011;10952;50.836;4.348;2022-07-29T03:29:44;5.80;;;2.00;;
21581;SDS011;10952;50.836;4.348;2022-07-29T03:32:10;5.77;;;2.27;;
21581;SDS011;10952;50.836;4.348;2022-07-29T03:34:36;10.67;;;2.20;;
21581;SDS011;10952;50.836;4.348;2022-07-29T03:37:03;6.37;;;2.57;;
21581;SDS011;10952;50.836;4.348;2022-07-29T03:39:29;4.90;;;2.20;;
21581;SDS011;10952;50.836;4.348;2022-07-29T03:41:58;8.67;;;2.33;;
21581;SDS011;10952;50.836;4.348;2022-07-29T03:44:25;4.23;;;1.80;;
21581;SDS011;10952;50.836;4.348;2022-07-29T03:46:53;8.10;;;2.50;;
21581;SDS011;10952;50.836;4.348;2022-07-29T03:49:26;4.53;;;2.10;;
21581;SDS011;10952;50.836;4.348;2022-07-29T03:51:58;7.57;;;2.10;;
21581;SDS011;10952;50.836;4.348;2022-07-29T03:54:27;4.73;;;2.30;;
21581;SDS011;10952;50.836;4.348;2022-07-29T03:56:53;7.57;;;2.77;;
21581;SDS011;10952;50.836;4.348;2022-07-29T03:59:20;10.53;;;2.20;;
21581;SDS011;10952;50.836;4.348;2022-07-29T04:01:49;5.20;;;2.27;;
21581;SDS011;10952;50.836;4.348;2022-07-29T04:04:17;7.80;;;2.67;;
21581;SDS011;10952;50.836;4.348;2022-07-29T04:06:43;6.80;;;2.40;;
21581;SDS011;10952;50.836;4.348;2022-07-29T04:09:10;8.40;;;2.97;;
21581;SDS011;10952;50.836;4.348;2022-07-29T04:11:38;8.83;;;2.77;;
21581;SDS011;10952;50.836;4.348;2022-07-29T04:14:08;7.93;;;2.43;;
21581;SDS011;10952;50.836;4.348;2022-07-29T04:16:35;8.13;;;2.70;;
21581;SDS011;10952;50.836;4.348;2022-07-29T04:19:02;8.67;;;2.60;;
21581;SDS011;10952;50.836;4.348;2022-07-29T04:21:31;11.53;;;2.60;;
21581;SDS011;10952;50.836;4.348;2022-07-29T04:24:06;5.73;;;2.90;;
21581;SDS011;10952;50.836;4.348;2022-07-29T04:26:33;9.87;;;3.00;;
21581;SDS011;10952;50.836;4.348;2022-07-29T04:29:03;5.33;;;2.30;;
21581;SDS011;10952;50.836;4.348;2022-07-29T04:31:28;10.10;;;2.40;;
21581;SDS011;10952;50.836;4.348;2022-07-29T04:33:54;8.23;;;3.57;;
21581;SDS011;10952;50.836;4.348;2022-07-29T04:36:20;15.03;;;3.93;;
21581;SDS011;10952;50.836;4.348;2022-07-29T04:38:46;6.47;;;3.10;;
21581;SDS011;10952;50.836;4.348;2022-07-29T04:41:13;7.83;;;3.10;;
21581;SDS011;10952;50.836;4.348;2022-07-29T04:46:08;9.33;;;3.30;;
21581;SDS011;10952;50.836;4.348;2022-07-29T04:51:04;15.10;;;3.00;;
21581;SDS011;10952;50.836;4.348;2022-07-29T04:53:32;8.20;;;3.33;;
21581;SDS011;10952;50.836;4.348;2022-07-29T04:55:58;5.40;;;2.70;;
21581;SDS011;10952;50.836;4.348;2022-07-29T04:58:24;8.40;;;3.53;;
21581;SDS011;10952;50.836;4.348;2022-07-29T05:00:50;11.50;;;3.77;;
21581;SDS011;10952;50.836;4.348;2022-07-29T05:03:16;11.23;;;3.63;;
21581;SDS011;10952;50.836;4.348;2022-07-29T05:05:42;8.43;;;4.13;;
21581;SDS011;10952;50.836;4.348;2022-07-29T05:08:09;5.27;;;3.07;;
21581;SDS011;10952;50.836;4.348;2022-07-29T05:10:34;8.17;;;3.27;;
21581;SDS011;10952;50.836;4.348;2022-07-29T05:13:06;8.53;;;3.80;;
21581;SDS011;10952;50.836;4.348;2022-07-29T05:15:34;7.23;;;3.13;;
21581;SDS011;10952;50.836;4.348;2022-07-29T05:20:32;9.70;;;3.30;;
21581;SDS011;10952;50.836;4.348;2022-07-29T05:23:01;11.87;;;3.43;;
21581;SDS011;10952;50.836;4.348;2022-07-29T05:25:28;10.17;;;3.87;;
21581;SDS011;10952;50.836;4.348;2022-07-29T05:27:56;7.40;;;3.53;;
21581;SDS011;10952;50.836;4.348;2022-07-29T05:30:23;9.13;;;3.03;;
21581;SDS011;10952;50.836;4.348;2022-07-29T05:32:50;17.93;;;9.53;;
21581;SDS011;10952;50.836;4.348;2022-07-29T05:35:18;8.03;;;3.33;;
21581;SDS011;10952;50.836;4.348;2022-07-29T05:37:44;8.00;;;3.20;;
21581;SDS011;10952;50.836;4.348;2022-07-29T05:40:10;8.03;;;3.77;;
21581;SDS011;10952;50.836;4.348;2022-07-29T05:42:36;9.43;;;3.77;;
21581;SDS011;10952;50.836;4.348;2022-07-29T05:45:03;12.03;;;3.47;;
21581;SDS011;10952;50.836;4.348;2022-07-29T05:47:35;8.90;;;3.43;;
21581;SDS011;10952;50.836;4.348;2022-07-29T05:50:01;11.27;;;3.77;;
21581;SDS011;10952;50.836;4.348;2022-07-29T05:52:26;9.13;;;3.73;;
21581;SDS011;10952;50.836;4.348;2022-07-29T05:54:52;4.67;;;3.33;;
21581;SDS011;10952;50.836;4.348;2022-07-29T05:57:21;6.93;;;3.43;;
21581;SDS011;10952;50.836;4.348;2022-07-29T05:59:49;8.87;;;3.53;;
21581;SDS011;10952;50.836;4.348;2022-07-29T06:02:15;11.20;;;5.60;;
21581;SDS011;10952;50.836;4.348;2022-07-29T06:04:41;12.83;;;4.17;;
21581;SDS011;10952;50.836;4.348;2022-07-29T06:07:08;10.30;;;3.77;;
21581;SDS011;10952;50.836;4.348;2022-07-29T06:12:02;10.17;;;4.17;;
21581;SDS011;10952;50.836;4.348;2022-07-29T06:14:28;9.23;;;3.43;;
21581;SDS011;10952;50.836;4.348;2022-07-29T06:16:54;14.23;;;3.63;;
21581;SDS011;10952;50.836;4.348;2022-07-29T06:19:20;9.37;;;4.23;;
21581;SDS011;10952;50.836;4.348;2022-07-29T06:21:46;8.30;;;3.63;;
21581;SDS011;10952;50.836;4.348;2022-07-29T06:24:13;6.97;;;3.60;;
21581;SDS011;10952;50.836;4.348;2022-07-29T06:26:40;9.67;;;3.53;;
21581;SDS011;10952;50.836;4.348;2022-07-29T06:29:06;8.77;;;3.77;;
21581;SDS011;10952;50.836;4.348;2022-07-29T06:31:33;5.63;;;3.83;;
21581;SDS011;10952;50.836;4.348;2022-07-29T06:34:00;11.63;;;4.57;;
21581;SDS011;10952;50.836;4.348;2022-07-29T06:36:26;6.47;;;3.40;;
21581;SDS011;10952;50.836;4.348;2022-07-29T06:38:51;14.40;;;4.70;;
21581;SDS011;10952;50.836;4.348;2022-07-29T06:41:17;7.73;;;3.87;;
21581;SDS011;10952;50.836;4.348;2022-07-29T06:43:44;11.60;;;4.60;;
21581;SDS011;10952;50.836;4.348;2022-07-29T06:46:12;7.40;;;3.80;;
21581;SDS011;10952;50.836;4.348;2022-07-29T06:48:40;13.23;;;5.20;;
21581;SDS011;10952;50.836;4.348;2022-07-29T06:51:10;10.73;;;3.90;;
21581;SDS011;10952;50.836;4.348;2022-07-29T06:53:36;10.07;;;4.10;;
21581;SDS011;10952;50.836;4.348;2022-07-29T06:56:03;7.00;;;3.80;;
21581;SDS011;10952;50.836;4.348;2022-07-29T06:58:30;13.97;;;4.13;;
21581;SDS011;10952;50.836;4.348;2022-07-29T07:01:01;8.50;;;4.20;;
21581;SDS011;10952;50.836;4.348;2022-07-29T07:03:29;10.77;;;4.10;;
21581;SDS011;10952;50.836;4.348;2022-07-29T07:05:58;8.10;;;3.77;;
21581;SDS011;10952;50.836;4.348;2022-07-29T07:08:25;11.17;;;4.13;;
21581;SDS011;10952;50.836;4.348;2022-07-29T07:10:50;6.50;;;3.87;;
21581;SDS011;10952;50.836;4.348;2022-07-29T07:13:17;10.27;;;4.20;;
21581;SDS011;10952;50.836;4.348;2022-07-29T07:15:46;10.93;;;4.73;;
21581;SDS011;10952;50.836;4.348;2022-07-29T07:18:13;10.33;;;4.20;;
21581;SDS011;10952;50.836;4.348;2022-07-29T07:20:40;10.90;;;3.83;;
21581;SDS011;10952;50.836;4.348;2022-07-29T07:23:08;12.10;;;4.20;;
21581;SDS011;10952;50.836;4.348;2022-07-29T07:25:33;8.13;;;4.50;;
21581;SDS011;10952;50.836;4.348;2022-07-29T07:27:59;11.17;;;4.80;;
21581;SDS011;10952;50.836;4.348;2022-07-29T07:30:25;14.83;;;4.40;;
21581;SDS011;10952;50.836;4.348;2022-07-29T07:32:52;11.23;;;5.00;;
21581;SDS011;10952;50.836;4.348;2022-07-29T07:35:18;8.53;;;4.83;;
21581;SDS011;10952;50.836;4.348;2022-07-29T07:37:44;19.53;;;5.77;;
21581;SDS011;10952;50.836;4.348;2022-07-29T07:40:10;16.53;;;4.90;;
21581;SDS011;10952;50.836;4.348;2022-07-29T07:42:38;10.80;;;5.27;;
21581;SDS011;10952;50.836;4.348;2022-07-29T07:45:04;9.80;;;5.00;;
21581;SDS011;10952;50.836;4.348;2022-07-29T07:47:31;8.27;;;4.23;;
21581;SDS011;10952;50.836;4.348;2022-07-29T07:49:57;10.83;;;4.20;;
21581;SDS011;10952;50.836;4.348;2022-07-29T07:52:22;9.27;;;4.30;;
21581;SDS011;10952;50.836;4.348;2022-07-29T07:54:48;11.70;;;4.43;;
21581;SDS011;10952;50.836;4.348;2022-07-29T07:57:14;8.70;;;3.67;;
21581;SDS011;10952;50.836;4.348;2022-07-29T07:59:41;8.63;;;3.93;;
21581;SDS011;10952;50.836;4.348;2022-07-29T08:02:07;9.00;;;4.13;;
21581;SDS011;10952;50.836;4.348;2022-07-29T08:04:35;12.67;;;4.30;;
21581;SDS011;10952;50.836;4.348;2022-07-29T08:07:01;13.43;;;4.33;;
21581;SDS011;10952;50.836;4.348;2022-07-29T08:09:28;11.23;;;4.30;;
21581;SDS011;10952;50.836;4.348;2022-07-29T08:11:54;9.43;;;4.00;;
21581;SDS011;10952;50.836;4.348;2022-07-29T08:14:20;7.30;;;3.60;;
21581;SDS011;10952;50.836;4.348;2022-07-29T08:16:46;17.13;;;4.90;;
21581;SDS011;10952;50.836;4.348;2022-07-29T08:19:11;7.77;;;3.53;;
21581;SDS011;10952;50.836;4.348;2022-07-29T08:21:38;18.53;;;4.60;;
21581;SDS011;10952;50.836;4.348;2022-07-29T08:24:05;7.97;;;4.80;;
21581;SDS011;10952;50.836;4.348;2022-07-29T08:26:49;8.33;;;3.63;;
21581;SDS011;10952;50.836;4.348;2022-07-29T08:29:15;9.17;;;3.70;;
21581;SDS011;10952;50.836;4.348;2022-07-29T08:31:42;9.53;;;4.17;;
21581;SDS011;10952;50.836;4.348;2022-07-29T08:34:08;9.50;;;4.20;;
21581;SDS011;10952;50.836;4.348;2022-07-29T08:36:34;14.93;;;3.80;;
21581;SDS011;10952;50.836;4.348;2022-07-29T08:39:00;6.27;;;3.03;;
21581;SDS011;10952;50.836;4.348;2022-07-29T08:41:27;8.97;;;3.83;;
21581;SDS011;10952;50.836;4.348;2022-07-29T08:43:53;8.47;;;3.60;;
21581;SDS011;10952;50.836;4.348;2022-07-29T08:46:20;7.43;;;2.83;;
21581;SDS011;10952;50.836;4.348;2022-07-29T08:48:46;7.43;;;2.80;;
21581;SDS011;10952;50.836;4.348;2022-07-29T08:51:14;6.50;;;2.87;;
21581;SDS011;10952;50.836;4.348;2022-07-29T08:53:41;6.93;;;2.90;;
21581;SDS011;10952;50.836;4.348;2022-07-29T08:56:12;7.47;;;3.00;;
21581;SDS011;10952;50.836;4.348;2022-07-29T08:58:39;8.27;;;3.00;;
21581;SDS011;10952;50.836;4.348;2022-07-29T09:01:05;5.07;;;2.60;;
21581;SDS011;10952;50.836;4.348;2022-07-29T09:03:32;6.73;;;3.07;;
21581;SDS011;10952;50.836;4.348;2022-07-29T09:06:01;9.17;;;3.13;;
21581;SDS011;10952;50.836;4.348;2022-07-29T09:08:28;4.60;;;2.27;;
21581;SDS011;10952;50.836;4.348;2022-07-29T09:10:55;9.67;;;2.47;;
21581;SDS011;10952;50.836;4.348;2022-07-29T09:13:21;6.50;;;2.80;;
21581;SDS011;10952;50.836;4.348;2022-07-29T09:15:47;9.07;;;2.43;;
21581;SDS011;10952;50.836;4.348;2022-07-29T09:18:35;9.63;;;3.30;;
21581;SDS011;10952;50.836;4.348;2022-07-29T09:21:00;5.97;;;2.33;;
21581;SDS011;10952;50.836;4.348;2022-07-29T09:26:44;7.33;;;2.50;;
21581;SDS011;10952;50.836;4.348;2022-07-29T09:29:11;6.47;;;2.97;;
21581;SDS011;10952;50.836;4.348;2022-07-29T09:31:41;7.40;;;2.60;;
21581;SDS011;10952;50.836;4.348;2022-07-29T09:34:11;9.20;;;2.40;;
21581;SDS011;10952;50.836;4.348;2022-07-29T09:36:42;7.67;;;2.90;;
21581;SDS011;10952;50.836;4.348;2022-07-29T09:39:13;7.00;;;2.90;;
21581;SDS011;10952;50.836;4.348;2022-07-29T09:41:50;10.30;;;3.03;;
21581;SDS011;10952;50.836;4.348;2022-07-29T09:44:21;6.60;;;2.73;;
21581;SDS011;10952;50.836;4.348;2022-07-29T09:49:51;7.65;;;2.45;;
21581;SDS011;10952;50.836;4.348;2022-07-29T09:52:24;11.88;;;2.90;;
21581;SDS011;10952;50.836;4.348;2022-07-29T09:54:52;7.53;;;3.65;;
21581;SDS011;10952;50.836;4.348;2022-07-29T09:57:26;8.18;;;2.80;;
21581;SDS011;10952;50.836;4.348;2022-07-29T09:59:57;10.30;;;2.90;;
21581;SDS011;10952;50.836;4.348;2022-07-29T10:02:27;6.13;;;2.80;;
21581;SDS011;10952;50.836;4.348;2022-07-29T10:04:55;14.68;;;2.70;;
21581;SDS011;10952;50.836;4.348;2022-07-29T10:07:21;7.75;;;2.65;;
21581;SDS011;10952;50.836;4.348;2022-07-29T10:09:57;4.63;;;2.05;;
21581;SDS011;10952;50.836;4.348;2022-07-29T10:12:24;7.70;;;2.60;;
21581;SDS011;10952;50.836;4.348;2022-07-29T10:14:50;6.55;;;2.00;;
21581;SDS011;10952;50.836;4.348;2022-07-29T10:17:16;3.78;;;1.92;;
21581;SDS011;10952;50.836;4.348;2022-07-29T10:19:43;7.28;;;2.30;;
21581;SDS011;10952;50.836;4.348;2022-07-29T10:22:09;6.00;;;2.42;;
21581;SDS011;10952;50.836;4.348;2022-07-29T10:24:36;6.43;;;2.45;;
21581;SDS011;10952;50.836;4.348;2022-07-29T10:27:03;6.60;;;1.80;;
21581;SDS011;10952;50.836;4.348;2022-07-29T10:29:32;9.77;;;1.90;;
21581;SDS011;10952;50.836;4.348;2022-07-29T10:32:07;4.60;;;1.85;;
21581;SDS011;10952;50.836;4.348;2022-07-29T10:35:15;4.40;;;1.85;;
21581;SDS011;10952;50.836;4.348;2022-07-29T10:43:44;15.73;;;2.50;;
21581;SDS011;10952;50.836;4.348;2022-07-29T10:46:13;8.30;;;2.60;;
21581;SDS011;10952;50.836;4.348;2022-07-29T11:00:32;7.20;;;2.67;;
21581;SDS011;10952;50.836;4.348;2022-07-29T11:05:06;8.52;;;2.72;;
21581;SDS011;10952;50.836;4.348;2022-07-29T11:07:34;6.38;;;2.53;;
21581;SDS011;10952;50.836;4.348;2022-07-29T11:15:09;10.25;;;2.85;;
21581;SDS011;10952;50.836;4.348;2022-07-29T11:20:32;6.18;;;2.80;;
21581;SDS011;10952;50.836;4.348;2022-07-29T11:23:21;12.23;;;2.60;;
21581;SDS011;10952;50.836;4.348;2022-07-29T11:26:15;9.55;;;2.95;;
21581;SDS011;10952;50.836;4.348;2022-07-29T11:31:33;5.63;;;2.45;;
21581;SDS011;10952;50.836;4.348;2022-07-29T11:34:19;14.75;;;2.78;;
21581;SDS011;10952;50.836;4.348;2022-07-29T11:39:35;7.38;;;3.42;;
21581;SDS011;10952;50.836;4.348;2022-07-29T11:47:33;8.48;;;3.22;;
21581;SDS011;10952;50.836;4.348;2022-07-29T11:50:06;8.20;;;3.58;;
21581;SDS011;10952;50.836;4.348;2022-07-29T11:52:41;8.13;;;3.17;;
21581;SDS011;10952;50.836;4.348;2022-07-29T11:55:08;8.05;;;2.80;;
21581;SDS011;10952;50.836;4.348;2022-07-29T11:57:37;10.75;;;3.22;;
21581;SDS011;10952;50.836;4.348;2022-07-29T12:00:06;14.55;;;3.03;;
21581;SDS011;10952;50.836;4.348;2022-07-29T12:02:42;7.30;;;2.67;;
21581;SDS011;10952;50.836;4.348;2022-07-29T12:05:09;9.48;;;3.25;;
21581;SDS011;10952;50.836;4.348;2022-07-29T12:07:39;6.35;;;2.72;;
21581;SDS011;10952;50.836;4.348;2022-07-29T12:10:05;10.40;;;3.25;;
21581;SDS011;10952;50.836;4.348;2022-07-29T12:12:33;6.95;;;2.67;;
21581;SDS011;10952;50.836;4.348;2022-07-29T12:15:13;8.63;;;3.35;;
21581;SDS011;10952;50.836;4.348;2022-07-29T12:17:45;8.82;;;2.55;;
21581;SDS011;10952;50.836;4.348;2022-07-29T12:20:13;5.55;;;2.55;;
21581;SDS011;10952;50.836;4.348;2022-07-29T12:22:51;11.52;;;2.60;;
21581;SDS011;10952;50.836;4.348;2022-07-29T12:25:18;8.57;;;3.55;;
21581;SDS011;10952;50.836;4.348;2022-07-29T12:27:45;9.68;;;2.72;;
21581;SDS011;10952;50.836;4.348;2022-07-29T12:30:12;8.15;;;3.90;;
21581;SDS011;10952;50.836;4.348;2022-07-29T12:32:44;5.93;;;2.63;;
21581;SDS011;10952;50.836;4.348;2022-07-29T12:37:43;11.60;;;2.95;;
21581;SDS011;10952;50.836;4.348;2022-07-29T12:40:13;8.38;;;3.50;;
21581;SDS011;10952;50.836;4.348;2022-07-29T12:43:27;6.53;;;2.65;;
21581;SDS011;10952;50.836;4.348;2022-07-29T12:45:38;7.60;;;2.95;;
21581;SDS011;10952;50.836;4.348;2022-07-29T12:48:09;8.48;;;3.85;;
21581;SDS011;10952;50.836;4.348;2022-07-29T12:50:35;9.55;;;3.17;;
21581;SDS011;10952;50.836;4.348;2022-07-29T12:53:08;10.10;;;2.40;;
21581;SDS011;10952;50.836;4.348;2022-07-29T12:55:46;6.93;;;2.53;;
21581;SDS011;10952;50.836;4.348;2022-07-29T13:01:18;6.95;;;2.92;;
21581;SDS011;10952;50.836;4.348;2022-07-29T13:09:20;6.65;;;2.78;;
21581;SDS011;10952;50.836;4.348;2022-07-29T13:11:49;12.77;;;5.72;;
21581;SDS011;10952;50.836;4.348;2022-07-29T13:14:32;4.32;;;2.55;;
21581;SDS011;10952;50.836;4.348;2022-07-29T13:17:04;6.50;;;2.58;;
21581;SDS011;10952;50.836;4.348;2022-07-29T13:19:39;6.97;;;3.08;;
21581;SDS011;10952;50.836;4.348;2022-07-29T13:22:08;9.27;;;3.08;;
21581;SDS011;10952;50.836;4.348;2022-07-29T13:24:45;9.02;;;2.65;;
21581;SDS011;10952;50.836;4.348;2022-07-29T13:27:17;8.13;;;2.70;;
21581;SDS011;10952;50.836;4.348;2022-07-29T13:29:47;4.28;;;2.28;;
21581;SDS011;10952;50.836;4.348;2022-07-29T13:32:16;7.63;;;2.53;;
21581;SDS011;10952;50.836;4.348;2022-07-29T13:34:43;10.85;;;2.90;;
21581;SDS011;10952;50.836;4.348;2022-07-29T13:37:12;7.82;;;2.33;;
21581;SDS011;10952;50.836;4.348;2022-07-29T13:39:40;4.82;;;2.20;;
21581;SDS011;10952;50.836;4.348;2022-07-29T13:42:09;7.88;;;2.10;;
21581;SDS011;10952;50.836;4.348;2022-07-29T13:44:38;8.27;;;2.22;;
21581;SDS011;10952;50.836;4.348;2022-07-29T13:49:36;5.70;;;2.10;;
21581;SDS011;10952;50.836;4.348;2022-07-29T13:52:02;7.63;;;2.05;;
21581;SDS011;10952;50.836;4.348;2022-07-29T13:54:29;6.85;;;1.80;;
21581;SDS011;10952;50.836;4.348;2022-07-29T13:56:57;6.22;;;2.08;;
21581;SDS011;10952;50.836;4.348;2022-07-29T14:01:55;6.82;;;2.40;;
21581;SDS011;10952;50.836;4.348;2022-07-29T14:04:21;5.68;;;2.30;;
21581;SDS011;10952;50.836;4.348;2022-07-29T14:06:50;7.75;;;1.95;;
21581;SDS011;10952;50.836;4.348;2022-07-29T14:09:17;10.48;;;2.47;;
21581;SDS011;10952;50.836;4.348;2022-07-29T14:11:46;7.78;;;1.98;;
21581;SDS011;10952;50.836;4.348;2022-07-29T14:14:25;5.63;;;1.73;;
21581;SDS011;10952;50.836;4.348;2022-07-29T14:16:52;9.00;;;2.38;;
21581;SDS011;10952;50.836;4.348;2022-07-29T14:19:19;4.43;;;2.30;;
21581;SDS011;10952;50.836;4.348;2022-07-29T14:21:44;7.30;;;3.55;;
21581;SDS011;10952;50.836;4.348;2022-07-29T14:24:10;6.55;;;1.98;;
21581;SDS011;10952;50.836;4.348;2022-07-29T14:26:36;7.72;;;2.00;;
21581;SDS011;10952;50.836;4.348;2022-07-29T14:29:07;8.48;;;2.20;;
21581;SDS011;10952;50.836;4.348;2022-07-29T14:31:35;6.80;;;1.90;;
21581;SDS011;10952;50.836;4.348;2022-07-29T14:34:12;6.32;;;2.40;;
21581;SDS011;10952;50.836;4.348;2022-07-29T14:36:44;10.40;;;3.08;;
21581;SDS011;10952;50.836;4.348;2022-07-29T14:39:10;4.88;;;1.98;;
21581;SDS011;10952;50.836;4.348;2022-07-29T14:41:36;6.15;;;2.08;;
21581;SDS011;10952;50.836;4.348;2022-07-29T14:44:04;10.13;;;2.95;;
21581;SDS011;10952;50.836;4.348;2022-07-29T14:46:32;7.38;;;1.83;;
21581;SDS011;10952;50.836;4.348;2022-07-29T14:48:58;7.18;;;2.33;;
21581;SDS011;10952;50.836;4.348;2022-07-29T14:51:23;6.25;;;2.10;;
21581;SDS011;10952;50.836;4.348;2022-07-29T14:53:49;8.27;;;2.53;;
21581;SDS011;10952;50.836;4.348;2022-07-29T14:56:15;4.72;;;2.38;;
21581;SDS011;10952;50.836;4.348;2022-07-29T14:58:42;5.78;;;2.72;;
21581;SDS011;10952;50.836;4.348;2022-07-29T15:01:09;6.22;;;1.90;;
21581;SDS011;10952;50.836;4.348;2022-07-29T15:03:35;5.85;;;2.13;;
21581;SDS011;10952;50.836;4.348;2022-07-29T15:06:01;8.70;;;2.15;;
21581;SDS011;10952;50.836;4.348;2022-07-29T15:08:26;9.88;;;2.35;;
21581;SDS011;10952;50.836;4.348;2022-07-29T15:10:55;6.32;;;2.40;;
21581;SDS011;10952;50.836;4.348;2022-07-29T15:13:25;5.32;;;1.90;;
21581;SDS011;10952;50.836;4.348;2022-07-29T15:15:52;7.80;;;3.90;;
21581;SDS011;10952;50.836;4.348;2022-07-29T15:18:18;6.80;;;1.92;;
21581;SDS011;10952;50.836;4.348;2022-07-29T15:20:44;6.00;;;2.00;;
21581;SDS011;10952;50.836;4.348;2022-07-29T15:23:11;6.55;;;2.42;;
21581;SDS011;10952;50.836;4.348;2022-07-29T15:25:38;6.13;;;2.70;;
21581;SDS011;10952;50.836;4.348;2022-07-29T15:28:04;5.30;;;2.35;;
21581;SDS011;10952;50.836;4.348;2022-07-29T15:30:34;5.57;;;2.22;;
21581;SDS011;10952;50.836;4.348;2022-07-29T15:33:05;13.38;;;2.67;;
21581;SDS011;10952;50.836;4.348;2022-07-29T15:35:32;7.78;;;2.20;;
21581;SDS011;10952;50.836;4.348;2022-07-29T15:37:57;5.35;;;2.28;;
21581;SDS011;10952;50.836;4.348;2022-07-29T15:40:23;12.52;;;2.75;;
21581;SDS011;10952;50.836;4.348;2022-07-29T15:42:49;8.18;;;2.65;;
21581;SDS011;10952;50.836;4.348;2022-07-29T15:45:15;6.22;;;2.90;;
21581;SDS011;10952;50.836;4.348;2022-07-29T15:47:40;4.75;;;2.95;;
21581;SDS011;10952;50.836;4.348;2022-07-29T15:50:07;5.30;;;2.70;;
21581;SDS011;10952;50.836;4.348;2022-07-29T15:52:39;6.60;;;2.67;;
21581;SDS011;10952;50.836;4.348;2022-07-29T15:55:05;8.65;;;3.22;;
21581;SDS011;10952;50.836;4.348;2022-07-29T15:57:31;6.35;;;2.92;;
21581;SDS011;10952;50.836;4.348;2022-07-29T15:59:57;6.45;;;3.03;;
21581;SDS011;10952;50.836;4.348;2022-07-29T16:02:23;9.65;;;3.75;;
21581;SDS011;10952;50.836;4.348;2022-07-29T16:04:49;7.35;;;3.42;;
21581;SDS011;10952;50.836;4.348;2022-07-29T16:07:15;15.57;;;3.90;;
21581;SDS011;10952;50.836;4.348;2022-07-29T16:09:42;7.60;;;3.55;;
21581;SDS011;10952;50.836;4.348;2022-07-29T16:12:08;6.97;;;3.53;;
21581;SDS011;10952;50.836;4.348;2022-07-29T16:14:36;6.70;;;3.70;;
21581;SDS011;10952;50.836;4.348;2022-07-29T16:17:02;9.75;;;3.58;;
21581;SDS011;10952;50.836;4.348;2022-07-29T16:19:28;7.95;;;3.33;;
21581;SDS011;10952;50.836;4.348;2022-07-29T16:21:54;9.13;;;4.05;;